Time;durP1;ratioP1;P1;durP2;ratioP2;P2;SDS_P1;SDS_P2;PMS_P1;PMS_P2;Temp;Humidity;BMP_temperature;BMP_pressure;BME280_temperature;BME280_humidity;BME280_pressure;Samples;Min_cycle;Max_cycle;Signal;HPM_P1;HPM_P2
2023/04/14 00:01:41;;;;;;;11.02;9.93;;;;;;;;;;5093677;28;20493;-81
2023/04/14 00:04:07;;;;;;;10.95;9.77;;;;;;;;;;5093621;28;20516;-81
2023/04/14 00:06:33;;;;;;;11.18;9.52;;;;;;;;;;5093206;28;20465;-81
2023/04/14 00:08:59;;;;;;;10.70;9.73;;;;;;;;;;5092366;28;20666;-79
2023/04/14 00:11:25;;;;;;;11.67;10.50;;;;;;;;;;5092507;28;20377;-81
2023/04/14 00:13:51;;;;;;;11.63;10.52;;;;;;;;;;5092754;28;20713;-81
2023/04/14 00:16:17;;;;;;;11.93;10.82;;;;;;;;;;5092480;28;20382;-81
2023/04/14 00:18:43;;;;;;;13.10;11.77;;;;;;;;;;5092751;28;20390;-80
2023/04/14 00:21:09;;;;;;;14.82;11.38;;;;;;;;;;5092206;28;20402;-81
2023/04/14 00:23:35;;;;;;;12.67;11.30;;;;;;;;;;5092465;28;20383;-80
2023/04/14 00:26:01;;;;;;;13.88;12.05;;;;;;;;;;5090488;28;20374;-79
2023/04/14 00:28:27;;;;;;;13.67;11.37;;;;;;;;;;5092479;28;20763;-79
2023/04/14 00:30:53;;;;;;;13.18;11.88;;;;;;;;;;5092129;28;20382;-79
2023/04/14 00:33:19;;;;;;;13.55;12.15;;;;;;;;;;5092403;28;20432;-79
2023/04/14 00:35:45;;;;;;;14.65;13.10;;;;;;;;;;5090490;28;20382;-80
2023/04/14 00:38:11;;;;;;;16.35;13.70;;;;;;;;;;5092248;28;20378;-81
2023/04/14 00:40:37;;;;;;;14.57;12.90;;;;;;;;;;5091863;28;20836;-81
2023/04/14 00:43:03;;;;;;;15.10;12.75;;;;;;;;;;5092304;28;20451;-81
2023/04/14 00:45:29;;;;;;;14.40;12.57;;;;;;;;;;5092333;28;20847;-81
2023/04/14 00:47:55;;;;;;;13.60;12.30;;;;;;;;;;5092152;28;20374;-81
2023/04/14 00:50:21;;;;;;;13.40;12.10;;;;;;;;;;5091580;28;20427;-81
2023/04/14 00:52:48;;;;;;;15.38;13.43;;;;;;;;;;5088658;28;20394;-81
2023/04/14 00:55:15;;;;;;;15.40;13.73;;;;;;;;;;5091754;28;20432;-81
2023/04/14 00:57:41;;;;;;;17.92;14.48;;;;;;;;;;5088697;28;20382;-80
2023/04/14 01:00:07;;;;;;;16.88;14.63;;;;;;;;;;5091902;28;21116;-81
2023/04/14 01:02:33;;;;;;;16.20;14.60;;;;;;;;;;5091599;28;20396;-80
2023/04/14 01:05:00;;;;;;;15.40;13.80;;;;;;;;;;5091477;28;20792;-80
2023/04/14 01:07:27;;;;;;;16.17;14.50;;;;;;;;;;5091610;28;20708;-81
2023/04/14 01:09:56;;;;;;;17.05;14.80;;;;;;;;;;5091309;28;20784;-81
2023/04/14 01:12:22;;;;;;;15.38;13.82;;;;;;;;;;5091406;28;20374;-80
2023/04/14 01:14:51;;;;;;;16.27;14.57;;;;;;;;;;5091305;28;20464;-81
2023/04/14 01:17:25;;;;;;;16.33;13.57;;;;;;;;;;5090444;28;20428;-81
2023/04/14 01:20:12;;;;;;;14.55;13.10;;;;;;;;;;5091234;28;20387;-81
2023/04/14 01:22:43;;;;;;;14.40;12.98;;;;;;;;;;5090870;28;20504;-81
2023/04/14 01:25:09;;;;;;;13.77;12.40;;;;;;;;;;5091336;28;20374;-81
2023/04/14 01:27:43;;;;;;;14.77;13.10;;;;;;;;;;5082775;28;20383;-81
2023/04/14 01:30:32;;;;;;;15.85;14.25;;;;;;;;;;5091390;28;20594;-81
2023/04/14 01:33:01;;;;;;;13.93;12.63;;;;;;;;;;5087948;28;20390;-80
2023/04/14 01:35:33;;;;;;;14.30;12.77;;;;;;;;;;5089766;28;20871;-81
2023/04/14 01:38:03;;;;;;;14.57;13.15;;;;;;;;;;5091119;28;20382;-81
2023/04/14 01:40:31;;;;;;;14.75;13.32;;;;;;;;;;5091121;28;20379;-80
2023/04/14 01:43:01;;;;;;;14.20;12.80;;;;;;;;;;5090708;28;20950;-81
2023/04/14 01:45:29;;;;;;;14.27;12.88;;;;;;;;;;5086731;28;20461;-81
2023/04/14 01:47:55;;;;;;;15.13;13.63;;;;;;;;;;5088303;28;20994;-81
2023/04/14 01:50:22;;;;;;;18.13;13.93;;;;;;;;;;5083034;28;20449;-81
2023/04/14 01:52:52;;;;;;;14.95;13.45;;;;;;;;;;5090682;28;20374;-81
2023/04/14 01:55:19;;;;;;;14.30;12.98;;;;;;;;;;5089559;28;20389;-81
2023/04/14 01:57:46;;;;;;;14.43;13.02;;;;;;;;;;5076792;28;20884;-81
2023/04/14 02:00:13;;;;;;;15.10;13.60;;;;;;;;;;5080393;28;20976;-80
2023/04/14 02:02:41;;;;;;;15.48;13.80;;;;;;;;;;5081166;28;20435;-81
2023/04/14 02:05:08;;;;;;;15.85;13.90;;;;;;;;;;5090224;28;20417;-81
2023/04/14 02:07:34;;;;;;;17.20;15.40;;;;;;;;;;5091200;28;20735;-80
2023/04/14 02:10:01;;;;;;;17.88;16.10;;;;;;;;;;5090989;28;20371;-80
2023/04/14 02:12:28;;;;;;;19.38;15.73;;;;;;;;;;5089971;28;20879;-80
2023/04/14 02:14:54;;;;;;;20.77;16.73;;;;;;;;;;5090103;28;20759;-81
2023/04/14 02:17:21;;;;;;;19.45;16.80;;;;;;;;;;5090636;28;20457;-81
2023/04/14 02:19:47;;;;;;;18.48;16.13;;;;;;;;;;5091101;28;20382;-80
2023/04/14 02:22:13;;;;;;;20.97;16.43;;;;;;;;;;5090721;28;20925;-80
2023/04/14 02:24:39;;;;;;;19.75;16.83;;;;;;;;;;5090935;28;20461;-80
2023/04/14 02:27:15;;;;;;;19.53;16.07;;;;;;;;;;5090598;28;20434;-80
2023/04/14 02:29:47;;;;;;;20.02;17.10;;;;;;;;;;5088947;28;20438;-81
2023/04/14 02:32:22;;;;;;;21.60;16.60;;;;;;;;;;5089330;28;20822;-81
2023/04/14 02:35:02;;;;;;;21.92;16.70;;;;;;;;;;5091102;28;20484;-81
2023/04/14 02:37:32;;;;;;;19.70;16.53;;;;;;;;;;5090824;28;20458;-80
2023/04/14 02:40:01;;;;;;;22.33;16.95;;;;;;;;;;5091030;28;20412;-80
2023/04/14 02:42:28;;;;;;;21.48;16.98;;;;;;;;;;5091028;28;20398;-80
2023/04/14 02:45:04;;;;;;;21.35;17.92;;;;;;;;;;5090820;28;20406;-81
2023/04/14 02:47:38;;;;;;;21.02;17.33;;;;;;;;;;5077464;28;20386;-81
2023/04/14 02:50:06;;;;;;;21.77;17.23;;;;;;;;;;5091370;28;20374;-81
2023/04/14 02:52:33;;;;;;;23.25;16.95;;;;;;;;;;5092519;28;20382;-81
2023/04/14 02:54:59;;;;;;;18.73;16.20;;;;;;;;;;5092327;28;20375;-81
2023/04/14 02:57:26;;;;;;;23.52;16.63;;;;;;;;;;5091483;28;20432;-81
2023/04/14 02:59:52;;;;;;;21.23;17.15;;;;;;;;;;5091170;28;20446;-80
2023/04/14 03:02:18;;;;;;;23.63;17.35;;;;;;;;;;5091125;28;20414;-80
2023/04/14 03:04:44;;;;;;;22.92;17.10;;;;;;;;;;5087162;28;20859;-81
2023/04/14 03:07:12;;;;;;;20.63;16.67;;;;;;;;;;5091020;28;20736;-81
2023/04/14 03:09:39;;;;;;;24.65;17.77;;;;;;;;;;5089578;28;20436;-80
2023/04/14 03:12:06;;;;;;;22.92;17.40;;;;;;;;;;5089188;28;20905;-79
2023/04/14 03:14:34;;;;;;;20.15;16.95;;;;;;;;;;5093040;28;20385;-79
2023/04/14 03:17:00;;;;;;;23.03;16.30;;;;;;;;;;5092396;28;20914;-79
2023/04/14 03:19:27;;;;;;;19.37;16.30;;;;;;;;;;5093630;28;20386;-81
2023/04/14 03:21:54;;;;;;;18.42;15.65;;;;;;;;;;5093691;28;20421;-80
2023/04/14 03:24:23;;;;;;;17.25;15.30;;;;;;;;;;5094453;28;20402;-80
2023/04/14 03:26:51;;;;;;;16.02;14.32;;;;;;;;;;5092549;28;20382;-79
2023/04/14 03:29:20;;;;;;;18.85;14.90;;;;;;;;;;5094245;28;20377;-79
2023/04/14 03:31:46;;;;;;;15.75;14.00;;;;;;;;;;5094045;28;20477;-80
2023/04/14 03:34:14;;;;;;;14.93;13.37;;;;;;;;;;5094076;28;20435;-80
2023/04/14 03:36:41;;;;;;;17.88;14.50;;;;;;;;;;5093030;28;20454;-80
2023/04/14 03:39:11;;;;;;;19.02;15.23;;;;;;;;;;5085358;28;20405;-80
2023/04/14 03:41:38;;;;;;;18.48;15.32;;;;;;;;;;5083674;28;20901;-80
2023/04/14 03:44:05;;;;;;;17.52;14.98;;;;;;;;;;5080600;28;20382;-80
2023/04/14 03:46:31;;;;;;;16.27;14.55;;;;;;;;;;5089464;28;20617;-80
2023/04/14 03:48:58;;;;;;;17.50;15.10;;;;;;;;;;5090890;28;20917;-80
2023/04/14 03:51:26;;;;;;;15.30;13.52;;;;;;;;;;5086777;28;20854;-80
2023/04/14 03:53:53;;;;;;;13.98;12.48;;;;;;;;;;5085134;28;20414;-80
2023/04/14 03:56:19;;;;;;;12.55;11.18;;;;;;;;;;5091653;28;20392;-80
2023/04/14 03:58:46;;;;;;;11.65;10.55;;;;;;;;;;5091872;28;20370;-80
2023/04/14 04:01:13;;;;;;;11.75;10.63;;;;;;;;;;5091497;28;20397;-80
2023/04/14 04:03:40;;;;;;;11.80;10.60;;;;;;;;;;5091414;28;20366;-80
2023/04/14 04:06:06;;;;;;;12.20;11.00;;;;;;;;;;5091473;28;20378;-80
2023/04/14 04:08:33;;;;;;;11.90;10.68;;;;;;;;;;5091756;28;20492;-80
2023/04/14 04:11:00;;;;;;;12.98;11.63;;;;;;;;;;5085120;28;20378;-80
2023/04/14 04:13:27;;;;;;;14.23;12.73;;;;;;;;;;5092035;28;20751;-80
2023/04/14 04:15:54;;;;;;;15.40;13.48;;;;;;;;;;5084661;28;20370;-80
2023/04/14 04:18:22;;;;;;;14.07;12.68;;;;;;;;;;5084648;28;21183;-80
2023/04/14 04:20:49;;;;;;;15.00;13.50;;;;;;;;;;5081818;28;20398;-80
2023/04/14 04:23:16;;;;;;;15.15;13.60;;;;;;;;;;5076393;28;20431;-80
2023/04/14 04:25:43;;;;;;;15.07;13.57;;;;;;;;;;5080108;28;20404;-80
2023/04/14 04:28:09;;;;;;;14.43;12.95;;;;;;;;;;5092779;28;20373;-80
2023/04/14 04:30:38;;;;;;;13.43;12.10;;;;;;;;;;5093027;28;20425;-80
2023/04/14 04:33:04;;;;;;;12.60;11.30;;;;;;;;;;5091700;28;20411;-80
2023/04/14 04:35:31;;;;;;;11.88;10.73;;;;;;;;;;5092728;28;20386;-80
2023/04/14 04:37:59;;;;;;;12.40;11.13;;;;;;;;;;5092877;28;20370;-80
2023/04/14 04:40:26;;;;;;;14.38;11.55;;;;;;;;;;5092676;28;20928;-80
2023/04/14 04:42:52;;;;;;;11.43;10.43;;;;;;;;;;5091912;28;20441;-80
2023/04/14 04:45:43;;;;;;;13.27;10.63;;;;;;;;;;5092606;28;20409;-81
2023/04/14 04:48:09;;;;;;;10.77;9.80;;;;;;;;;;5088373;28;20419;-81
2023/04/14 04:50:35;;;;;;;10.82;9.73;;;;;;;;;;5086698;28;20370;-81
2023/04/14 04:53:01;;;;;;;12.98;10.70;;;;;;;;;;5090904;28;20392;-80
2023/04/14 04:55:27;;;;;;;12.13;10.50;;;;;;;;;;5090399;28;20482;-80
2023/04/14 04:57:53;;;;;;;10.45;9.45;;;;;;;;;;5091275;28;20524;-79
2023/04/14 05:00:21;;;;;;;10.77;9.68;;;;;;;;;;5090891;28;20382;-79
2023/04/14 05:02:47;;;;;;;11.45;10.10;;;;;;;;;;5092326;28;20401;-80
2023/04/14 05:05:13;;;;;;;9.90;8.90;;;;;;;;;;5090440;28;20931;-79
2023/04/14 05:07:39;;;;;;;10.02;9.20;;;;;;;;;;5093657;28;20382;-80
2023/04/14 05:10:05;;;;;;;10.38;9.38;;;;;;;;;;5088134;28;20383;-79
2023/04/14 05:12:31;;;;;;;9.70;8.88;;;;;;;;;;5075160;28;20395;-80
2023/04/14 05:14:57;;;;;;;10.00;9.07;;;;;;;;;;5090044;28;20378;-80
2023/04/14 05:17:23;;;;;;;10.30;9.37;;;;;;;;;;5092185;28;20863;-79
2023/04/14 05:19:49;;;;;;;10.88;9.63;;;;;;;;;;5092053;28;20374;-80
2023/04/14 05:22:15;;;;;;;11.38;10.38;;;;;;;;;;5090137;28;20409;-80
2023/04/14 05:24:41;;;;;;;13.18;10.60;;;;;;;;;;5083525;28;20407;-81
2023/04/14 05:27:07;;;;;;;14.68;12.70;;;;;;;;;;5087787;28;20398;-80
2023/04/14 05:29:33;;;;;;;15.37;12.93;;;;;;;;;;5092150;28;20419;-79
2023/04/14 05:31:59;;;;;;;15.02;13.30;;;;;;;;;;5091824;28;20980;-79
2023/04/14 05:34:26;;;;;;;13.90;12.52;;;;;;;;;;5092107;28;20370;-78
2023/04/14 05:36:52;;;;;;;13.45;12.10;;;;;;;;;;5091841;28;20381;-79
2023/04/14 05:39:18;;;;;;;11.98;10.88;;;;;;;;;;5087593;28;20378;-79
2023/04/14 05:41:44;;;;;;;13.27;11.90;;;;;;;;;;5090428;28;20847;-79
2023/04/14 05:44:11;;;;;;;15.63;12.25;;;;;;;;;;5091817;28;20381;-78
2023/04/14 05:46:37;;;;;;;14.73;13.13;;;;;;;;;;5091803;28;20374;-79
2023/04/14 05:49:03;;;;;;;15.23;12.73;;;;;;;;;;5091624;28;20374;-79
2023/04/14 05:51:31;;;;;;;15.47;13.23;;;;;;;;;;5091632;28;20385;-79
2023/04/14 05:53:57;;;;;;;16.20;12.97;;;;;;;;;;5080036;28;20445;-79
2023/04/14 05:56:23;;;;;;;16.05;13.10;;;;;;;;;;5090379;28;20385;-79
2023/04/14 05:58:53;;;;;;;14.60;13.02;;;;;;;;;;5091587;28;20739;-80
2023/04/14 06:01:19;;;;;;;14.47;12.83;;;;;;;;;;5091424;28;20520;-79
2023/04/14 06:03:45;;;;;;;14.10;12.25;;;;;;;;;;5091814;28;20709;-79
2023/04/14 06:06:11;;;;;;;16.15;12.85;;;;;;;;;;5091579;28;20431;-79
2023/04/14 06:08:36;;;;;;;16.75;13.65;;;;;;;;;;5090746;28;20465;-80
2023/04/14 06:11:03;;;;;;;15.38;13.18;;;;;;;;;;5094127;28;20931;-79
2023/04/14 06:13:29;;;;;;;17.80;13.45;;;;;;;;;;5093196;28;20386;-79
2023/04/14 06:15:55;;;;;;;21.98;14.20;;;;;;;;;;5092024;28;20370;-80
2023/04/14 06:18:24;;;;;;;20.27;14.90;;;;;;;;;;5091470;28;20512;-80
2023/04/14 06:20:50;;;;;;;19.58;14.82;;;;;;;;;;5091494;28;20425;-79
2023/04/14 06:23:16;;;;;;;21.27;15.30;;;;;;;;;;5091584;28;20402;-78
2023/04/14 06:25:42;;;;;;;17.48;14.07;;;;;;;;;;5091476;28;20460;-79
2023/04/14 06:28:08;;;;;;;15.93;13.38;;;;;;;;;;5091583;28;20457;-79
2023/04/14 06:30:34;;;;;;;16.00;13.80;;;;;;;;;;5091426;28;20426;-79
2023/04/14 06:33:03;;;;;;;16.83;13.38;;;;;;;;;;5091284;28;20435;-79
2023/04/14 06:35:30;;;;;;;18.93;13.93;;;;;;;;;;5091365;28;20780;-78
2023/04/14 06:37:56;;;;;;;20.63;13.77;;;;;;;;;;5086723;28;20881;-78
2023/04/14 06:40:22;;;;;;;16.53;12.93;;;;;;;;;;5099831;28;20449;-79
2023/04/14 06:42:49;;;;;;;17.20;13.18;;;;;;;;;;5092851;28;20921;-79
2023/04/14 06:45:15;;;;;;;14.47;12.20;;;;;;;;;;5083604;28;20382;-79
2023/04/14 06:47:41;;;;;;;14.30;11.82;;;;;;;;;;5089019;28;20373;-79
2023/04/14 06:50:07;;;;;;;14.03;12.17;;;;;;;;;;5083846;28;20366;-78
2023/04/14 06:52:33;;;;;;;13.73;12.20;;;;;;;;;;5092824;28;20417;-79
2023/04/14 06:54:59;;;;;;;14.90;12.40;;;;;;;;;;5088480;28;20809;-79
2023/04/14 06:57:25;;;;;;;15.88;13.07;;;;;;;;;;5076069;28;20433;-78
2023/04/14 06:59:52;;;;;;;14.32;12.20;;;;;;;;;;5079037;28;20373;-78
2023/04/14 07:02:18;;;;;;;18.55;13.35;;;;;;;;;;5094209;28;20409;-78
2023/04/14 07:04:44;;;;;;;13.98;12.32;;;;;;;;;;5094886;28;20401;-78
2023/04/14 07:07:10;;;;;;;17.42;13.32;;;;;;;;;;5094851;28;20411;-78
2023/04/14 07:09:36;;;;;;;18.13;14.03;;;;;;;;;;5092925;28;20419;-78
2023/04/14 07:12:02;;;;;;;15.98;13.20;;;;;;;;;;5094683;28;20381;-79
2023/04/14 07:14:31;;;;;;;18.83;13.82;;;;;;;;;;5091261;28;20880;-79
2023/04/14 07:16:57;;;;;;;21.57;14.67;;;;;;;;;;5094419;28;20385;-78
2023/04/14 07:19:23;;;;;;;20.50;14.73;;;;;;;;;;5091510;28;20739;-79
2023/04/14 07:21:49;;;;;;;18.70;14.77;;;;;;;;;;5094046;28;20418;-78
2023/04/14 07:24:15;;;;;;;18.85;14.75;;;;;;;;;;5094523;28;20465;-79
2023/04/14 07:26:42;;;;;;;19.42;14.13;;;;;;;;;;5094336;28;20371;-79
2023/04/14 07:29:08;;;;;;;15.98;13.65;;;;;;;;;;5094388;28;20386;-78
2023/04/14 07:31:36;;;;;;;17.98;12.48;;;;;;;;;;5094345;28;20385;-79
2023/04/14 07:34:02;;;;;;;15.13;13.52;;;;;;;;;;5093007;28;20430;-78
2023/04/14 07:36:30;;;;;;;18.90;13.60;;;;;;;;;;5094376;28;20424;-79
2023/04/14 07:38:56;;;;;;;15.52;12.75;;;;;;;;;;5093857;28;20377;-79
2023/04/14 07:41:22;;;;;;;15.07;12.77;;;;;;;;;;5083367;28;20377;-79
2023/04/14 07:43:48;;;;;;;13.25;11.77;;;;;;;;;;5094272;28;20370;-79
2023/04/14 07:46:14;;;;;;;15.27;12.63;;;;;;;;;;5093996;28;20700;-79
2023/04/14 07:48:40;;;;;;;15.15;11.70;;;;;;;;;;5093873;28;20377;-79
2023/04/14 07:51:06;;;;;;;15.07;12.40;;;;;;;;;;5093778;28;20407;-79
2023/04/14 07:53:33;;;;;;;14.75;11.85;;;;;;;;;;5094148;28;20382;-79
2023/04/14 07:55:59;;;;;;;13.13;11.30;;;;;;;;;;5092073;28;20502;-79
2023/04/14 07:58:25;;;;;;;12.57;11.23;;;;;;;;;;5081148;28;20465;-79
2023/04/14 08:00:51;;;;;;;14.60;11.82;;;;;;;;;;5091421;28;20378;-78
2023/04/14 08:03:17;;;;;;;14.73;11.40;;;;;;;;;;5093680;28;20421;-79
2023/04/14 08:05:43;;;;;;;12.38;11.13;;;;;;;;;;5093791;28;20748;-80
2023/04/14 08:08:09;;;;;;;12.00;10.88;;;;;;;;;;5093622;28;20371;-79
2023/04/14 08:10:36;;;;;;;11.17;10.07;;;;;;;;;;5093484;28;20463;-79
2023/04/14 08:13:02;;;;;;;12.57;10.48;;;;;;;;;;5093709;28;20447;-80
2023/04/14 08:15:28;;;;;;;12.70;9.50;;;;;;;;;;5093498;28;20394;-79
2023/04/14 08:17:54;;;;;;;10.52;9.23;;;;;;;;;;5093321;28;20882;-79
2023/04/14 08:20:21;;;;;;;9.55;8.73;;;;;;;;;;5079215;28;20427;-79
2023/04/14 08:22:47;;;;;;;10.50;8.65;;;;;;;;;;5092960;28;20418;-79
2023/04/14 08:25:13;;;;;;;9.77;8.77;;;;;;;;;;5093160;28;20381;-79
2023/04/14 08:27:40;;;;;;;10.82;8.30;;;;;;;;;;5093153;28;20366;-80
2023/04/14 08:30:06;;;;;;;10.60;8.65;;;;;;;;;;5089997;28;20375;-79
2023/04/14 08:32:32;;;;;;;11.90;8.65;;;;;;;;;;5091452;28;20392;-79
2023/04/14 08:34:58;;;;;;;10.00;8.20;;;;;;;;;;5092966;28;20455;-79
2023/04/14 08:37:25;;;;;;;9.20;8.30;;;;;;;;;;5091609;28;20724;-79
2023/04/14 08:39:51;;;;;;;9.02;7.82;;;;;;;;;;5092859;28;20382;-79
2023/04/14 08:42:17;;;;;;;10.35;7.60;;;;;;;;;;5092655;28;20462;-79
2023/04/14 08:44:43;;;;;;;9.52;8.27;;;;;;;;;;5092860;28;20406;-79
2023/04/14 08:47:09;;;;;;;9.38;8.02;;;;;;;;;;5092690;28;20483;-79
2023/04/14 08:49:40;;;;;;;10.00;7.80;;;;;;;;;;5091392;28;20740;-80
2023/04/14 08:52:10;;;;;;;10.52;8.38;;;;;;;;;;5090931;28;20393;-79
2023/04/14 08:54:37;;;;;;;10.10;7.25;;;;;;;;;;5092656;28;20374;-80
2023/04/14 08:57:03;;;;;;;6.97;6.22;;;;;;;;;;5091411;28;20507;-79
2023/04/14 08:59:29;;;;;;;8.98;6.80;;;;;;;;;;5092103;28;20578;-79
2023/04/14 09:01:55;;;;;;;6.60;5.82;;;;;;;;;;5092336;28;20471;-79
2023/04/14 09:04:23;;;;;;;9.23;6.10;;;;;;;;;;5092411;28;20422;-79
2023/04/14 09:06:49;;;;;;;9.02;5.63;;;;;;;;;;5092396;28;20370;-79
2023/04/14 09:09:15;;;;;;;6.68;4.80;;;;;;;;;;5092226;28;20387;-80
2023/04/14 09:11:41;;;;;;;7.85;5.15;;;;;;;;;;5091844;28;20430;-79
2023/04/14 09:14:08;;;;;;;7.70;5.50;;;;;;;;;;5101456;28;20377;-79
2023/04/14 09:16:35;;;;;;;8.25;5.70;;;;;;;;;;5092143;28;20386;-79
2023/04/14 09:19:01;;;;;;;7.38;5.22;;;;;;;;;;5092139;28;20416;-79
2023/04/14 09:21:27;;;;;;;6.50;4.70;;;;;;;;;;5091707;28;20535;-80
2023/04/14 09:23:53;;;;;;;7.07;4.35;;;;;;;;;;5092057;28;20465;-80
2023/04/14 09:26:20;;;;;;;6.90;4.60;;;;;;;;;;5091467;28;20461;-79
2023/04/14 09:28:46;;;;;;;6.20;3.85;;;;;;;;;;5089182;28;20370;-79
2023/04/14 09:31:12;;;;;;;5.43;4.20;;;;;;;;;;5088070;28;20903;-79
2023/04/14 09:33:38;;;;;;;7.38;3.85;;;;;;;;;;5095394;28;20424;-79
2023/04/14 09:36:04;;;;;;;6.90;4.50;;;;;;;;;;5094488;28;20422;-80
2023/04/14 09:38:32;;;;;;;6.00;3.30;;;;;;;;;;5094331;28;20417;-81
2023/04/14 09:40:58;;;;;;;5.63;3.13;;;;;;;;;;5099043;28;20423;-82
2023/04/14 09:43:25;;;;;;;5.68;2.72;;;;;;;;;;5086983;28;20404;-83
2023/04/14 09:45:52;;;;;;;4.40;2.80;;;;;;;;;;5084912;28;20383;-82
2023/04/14 09:48:18;;;;;;;5.07;3.30;;;;;;;;;;5080695;28;20948;-82
2023/04/14 09:50:57;;;;;;;7.82;3.50;;;;;;;;;;5102576;28;20369;-82
2023/04/14 09:53:30;;;;;;;6.22;3.00;;;;;;;;;;5074754;28;20908;-83
2023/04/14 09:55:58;;;;;;;6.13;2.70;;;;;;;;;;5087997;28;20413;-82
2023/04/14 09:58:28;;;;;;;5.75;3.13;;;;;;;;;;5101717;28;20380;-83
2023/04/14 10:00:54;;;;;;;5.20;2.70;;;;;;;;;;5095262;28;20381;-84
2023/04/14 10:03:37;;;;;;;4.75;2.65;;;;;;;;;;5086417;28;20500;-83
2023/04/14 10:06:15;;;;;;;5.90;2.80;;;;;;;;;;5091948;28;20374;-83
2023/04/14 10:08:42;;;;;;;5.78;3.15;;;;;;;;;;5092064;28;20370;-82
2023/04/14 10:11:15;;;;;;;6.40;3.20;;;;;;;;;;5091800;28;20385;-83
2023/04/14 10:13:41;;;;;;;5.68;3.00;;;;;;;;;;5092022;28;20370;-83
2023/04/14 10:16:08;;;;;;;5.27;2.10;;;;;;;;;;5092310;28;20469;-83
2023/04/14 10:18:34;;;;;;;4.30;1.90;;;;;;;;;;5091948;28;20370;-83
2023/04/14 10:21:01;;;;;;;3.80;1.90;;;;;;;;;;5091869;28;20393;-83
2023/04/14 10:23:27;;;;;;;4.93;1.88;;;;;;;;;;5092747;28;20493;-83
2023/04/14 10:25:55;;;;;;;7.35;4.63;;;;;;;;;;5094612;28;20382;-83
2023/04/14 10:28:22;;;;;;;5.35;2.58;;;;;;;;;;5095934;28;20464;-83
2023/04/14 10:30:49;;;;;;;10.30;4.78;;;;;;;;;;5095207;28;20435;-84
2023/04/14 10:33:15;;;;;;;5.70;2.47;;;;;;;;;;5095612;28;20397;-83
2023/04/14 10:35:45;;;;;;;6.03;3.07;;;;;;;;;;5086099;28;20529;-83
2023/04/14 10:38:12;;;;;;;6.57;3.90;;;;;;;;;;5078018;28;20387;-83
2023/04/14 10:40:53;;;;;;;3.47;1.80;;;;;;;;;;5077656;28;20426;-83
2023/04/14 10:43:20;;;;;;;4.40;1.70;;;;;;;;;;5077170;28;20407;-83
2023/04/14 10:45:53;;;;;;;3.65;1.73;;;;;;;;;;5078150;28;20427;-84
2023/04/14 10:48:19;;;;;;;3.63;1.87;;;;;;;;;;5082637;28;20373;-83
2023/04/14 10:50:50;;;;;;;4.40;1.80;;;;;;;;;;5082151;28;20469;-83
2023/04/14 10:53:16;;;;;;;4.73;2.23;;;;;;;;;;5093710;28;20905;-83
2023/04/14 10:55:45;;;;;;;3.03;1.60;;;;;;;;;;5083904;28;20388;-85
2023/04/14 10:58:19;;;;;;;4.32;2.20;;;;;;;;;;5095609;28;20382;-85
2023/04/14 11:00:45;;;;;;;4.57;1.83;;;;;;;;;;5079842;28;20380;-84
2023/04/14 11:03:12;;;;;;;2.40;1.55;;;;;;;;;;5078766;28;20403;-84
2023/04/14 11:05:44;;;;;;;5.28;2.40;;;;;;;;;;5075714;28;20380;-83
2023/04/14 11:08:19;;;;;;;5.40;2.78;;;;;;;;;;5081612;28;20403;-84
2023/04/14 11:10:48;;;;;;;6.55;2.88;;;;;;;;;;5086698;28;20382;-83
2023/04/14 11:13:14;;;;;;;4.55;1.90;;;;;;;;;;5085389;28;20457;-83
2023/04/14 11:15:59;;;;;;;4.47;1.77;;;;;;;;;;5082921;28;20475;-84
2023/04/14 11:18:41;;;;;;;3.55;1.77;;;;;;;;;;5091374;28;20408;-82
2023/04/14 11:21:14;;;;;;;3.28;1.55;;;;;;;;;;5088871;28;20874;-84
2023/04/14 11:23:41;;;;;;;3.90;1.40;;;;;;;;;;5093498;28;20468;-84
2023/04/14 11:26:08;;;;;;;4.25;1.40;;;;;;;;;;5089878;28;20847;-84
2023/04/14 11:28:35;;;;;;;2.03;1.20;;;;;;;;;;5084081;28;20929;-85
2023/04/14 11:31:01;;;;;;;4.05;1.25;;;;;;;;;;5087840;28;20378;-83
2023/04/14 11:33:30;;;;;;;3.22;1.42;;;;;;;;;;5082024;28;20411;-82
2023/04/14 11:36:00;;;;;;;4.90;1.50;;;;;;;;;;5084670;28;20878;-85
2023/04/14 11:38:26;;;;;;;2.50;1.35;;;;;;;;;;5094215;28;20472;-84
2023/04/14 11:40:52;;;;;;;3.40;1.25;;;;;;;;;;5094061;28;20382;-83
2023/04/14 11:43:19;;;;;;;3.42;1.27;;;;;;;;;;5092733;28;20406;-84
2023/04/14 11:45:46;;;;;;;4.00;1.30;;;;;;;;;;5093901;28;20374;-86
2023/04/14 11:48:14;;;;;;;2.30;1.20;;;;;;;;;;5081210;28;20373;-86
2023/04/14 11:50:42;;;;;;;2.88;1.23;;;;;;;;;;5079097;28;20463;-87
2023/04/14 11:53:08;;;;;;;2.53;1.13;;;;;;;;;;5080873;28;20456;-87
2023/04/14 11:55:35;;;;;;;2.65;1.10;;;;;;;;;;5076453;28;20391;-85
2023/04/14 11:58:02;;;;;;;2.22;1.05;;;;;;;;;;5076579;28;20437;-89
2023/04/14 12:00:28;;;;;;;3.35;1.45;;;;;;;;;;5076935;28;20432;-85
2023/04/14 12:02:54;;;;;;;3.15;1.25;;;;;;;;;;5092308;28;20402;-86
2023/04/14 12:05:21;;;;;;;3.08;1.10;;;;;;;;;;5094081;28;20406;-85
2023/04/14 12:07:48;;;;;;;3.95;1.10;;;;;;;;;;5093764;28;20370;-86
2023/04/14 12:10:15;;;;;;;2.65;1.00;;;;;;;;;;5094032;28;20412;-85
2023/04/14 12:12:41;;;;;;;3.90;1.30;;;;;;;;;;5093816;28;20430;-86
2023/04/14 12:15:08;;;;;;;2.80;1.02;;;;;;;;;;5093508;28;20398;-84
2023/04/14 12:17:34;;;;;;;1.90;0.90;;;;;;;;;;5090796;28;20378;-86
2023/04/14 12:20:00;;;;;;;2.90;1.10;;;;;;;;;;5079625;28;20382;-85
2023/04/14 12:22:27;;;;;;;3.22;1.30;;;;;;;;;;5087378;28;20410;-84
2023/04/14 12:24:53;;;;;;;2.87;1.20;;;;;;;;;;5085492;28;20840;-84
2023/04/14 12:27:21;;;;;;;3.42;1.25;;;;;;;;;;5090378;28;20374;-82
2023/04/14 12:29:48;;;;;;;4.88;1.30;;;;;;;;;;5093404;28;20370;-85
2023/04/14 12:32:15;;;;;;;4.57;1.13;;;;;;;;;;5093081;28;20386;-85
2023/04/14 12:34:51;;;;;;;3.33;1.40;;;;;;;;;;5092802;28;20390;-85
2023/04/14 12:37:23;;;;;;;3.08;1.02;;;;;;;;;;5085864;28;20395;-85
2023/04/14 12:39:50;;;;;;;3.13;1.03;;;;;;;;;;5090989;28;20412;-90
2023/04/14 12:42:17;;;;;;;3.10;1.10;;;;;;;;;;5093811;28;20416;-82
2023/04/14 12:44:52;;;;;;;2.07;0.90;;;;;;;;;;5093499;28;20388;-82
2023/04/14 12:47:25;;;;;;;2.58;1.00;;;;;;;;;;5087830;28;20382;-82
2023/04/14 12:49:53;;;;;;;2.30;0.93;;;;;;;;;;5093038;28;20366;-83
2023/04/14 12:52:37;;;;;;;2.67;0.85;;;;;;;;;;5092828;28;20381;-83
2023/04/14 12:55:04;;;;;;;2.27;0.90;;;;;;;;;;5100251;28;20380;-83
2023/04/14 12:57:31;;;;;;;3.23;1.00;;;;;;;;;;5102904;28;21051;-82
2023/04/14 12:59:58;;;;;;;2.03;0.90;;;;;;;;;;5098651;28;20370;-83
2023/04/14 13:02:24;;;;;;;1.55;0.63;;;;;;;;;;5093250;28;20393;-83
2023/04/14 13:04:50;;;;;;;3.00;0.80;;;;;;;;;;5090446;28;20434;-83
2023/04/14 13:07:16;;;;;;;3.37;1.00;;;;;;;;;;5093733;28;20479;-83
2023/04/14 13:09:42;;;;;;;1.98;0.80;;;;;;;;;;5093204;28;20839;-83
2023/04/14 13:12:08;;;;;;;2.75;0.90;;;;;;;;;;5092999;28;20414;-83
2023/04/14 13:14:34;;;;;;;2.67;1.00;;;;;;;;;;5092575;28;20382;-83
2023/04/14 13:17:00;;;;;;;2.22;0.93;;;;;;;;;;5092456;28;20867;-83
2023/04/14 13:19:26;;;;;;;1.80;0.80;;;;;;;;;;5092701;28;20378;-83
2023/04/14 13:21:52;;;;;;;1.97;0.80;;;;;;;;;;5092136;28;20496;-84
2023/04/14 13:24:18;;;;;;;2.17;0.85;;;;;;;;;;5092345;28;20798;-83
2023/04/14 13:26:45;;;;;;;2.20;1.00;;;;;;;;;;5080557;28;20394;-83
2023/04/14 13:29:12;;;;;;;2.30;1.10;;;;;;;;;;5091009;28;20434;-83
2023/04/14 13:31:38;;;;;;;2.35;1.20;;;;;;;;;;5092401;28;20466;-83
2023/04/14 13:34:04;;;;;;;1.85;0.80;;;;;;;;;;5089904;28;20385;-83
2023/04/14 13:36:30;;;;;;;7.38;4.30;;;;;;;;;;5092365;28;20386;-84
2023/04/14 13:38:56;;;;;;;1.90;0.93;;;;;;;;;;5092051;28;20413;-83
2023/04/14 13:41:23;;;;;;;2.90;0.88;;;;;;;;;;5091951;28;20874;-83
2023/04/14 13:43:49;;;;;;;2.53;0.90;;;;;;;;;;5092109;28;20457;-83
2023/04/14 13:46:15;;;;;;;2.55;0.98;;;;;;;;;;5091897;28;20400;-83
2023/04/14 13:48:44;;;;;;;3.10;1.92;;;;;;;;;;5092033;28;20370;-84
2023/04/14 13:51:11;;;;;;;2.20;0.98;;;;;;;;;;5091924;28;20875;-83
2023/04/14 13:53:37;;;;;;;1.83;0.80;;;;;;;;;;5092063;28;20384;-83
2023/04/14 13:56:03;;;;;;;2.03;1.00;;;;;;;;;;5091799;28;20463;-83
2023/04/14 13:58:29;;;;;;;2.20;0.80;;;;;;;;;;5091749;28;20473;-83
2023/04/14 14:00:55;;;;;;;2.30;0.90;;;;;;;;;;5091630;28;20374;-83
2023/04/14 14:03:21;;;;;;;2.42;1.00;;;;;;;;;;5091722;28;20398;-83
2023/04/14 14:05:47;;;;;;;2.00;1.00;;;;;;;;;;5091823;28;20863;-83
2023/04/14 14:08:14;;;;;;;3.38;0.90;;;;;;;;;;5090062;28;20759;-83
2023/04/14 14:10:41;;;;;;;3.20;0.88;;;;;;;;;;5091532;28;20445;-83
2023/04/14 14:13:07;;;;;;;2.87;1.10;;;;;;;;;;5091548;28;20378;-83
2023/04/14 14:15:33;;;;;;;2.28;0.90;;;;;;;;;;5091696;28;20493;-83
2023/04/14 14:17:59;;;;;;;2.60;1.03;;;;;;;;;;5091565;28;20374;-83
2023/04/14 14:20:25;;;;;;;2.92;1.08;;;;;;;;;;5091576;28;20374;-83
2023/04/14 14:22:51;;;;;;;3.90;1.10;;;;;;;;;;5091053;28;20425;-83
2023/04/14 14:25:17;;;;;;;3.30;1.30;;;;;;;;;;5091567;28;20384;-83
2023/04/14 14:27:46;;;;;;;2.97;0.95;;;;;;;;;;5091550;28;20390;-83
2023/04/14 14:30:12;;;;;;;1.98;0.80;;;;;;;;;;5091403;28;20374;-83